sensor_id;sensor_type;location;lat;lon;timestamp;temperature;humidity
12827;DHT22;66927;48.812;9.118;2023-07-08T00:00:44;25.00;62.10
12827;DHT22;66927;48.812;9.118;2023-07-08T00:03:17;24.90;62.30
12827;DHT22;66927;48.812;9.118;2023-07-08T00:05:46;24.90;62.20
12827;DHT22;66927;48.812;9.118;2023-07-08T00:08:16;24.90;62.30
12827;DHT22;66927;48.812;9.118;2023-07-08T00:10:42;24.90;62.50
12827;DHT22;66927;48.812;9.118;2023-07-08T00:13:09;24.90;62.50
12827;DHT22;66927;48.812;9.118;2023-07-08T00:15:37;24.90;62.60
12827;DHT22;66927;48.812;9.118;2023-07-08T00:18:28;24.90;62.90
12827;DHT22;66927;48.812;9.118;2023-07-08T00:20:53;24.90;63.10
12827;DHT22;66927;48.812;9.118;2023-07-08T00:23:19;24.90;63.30
12827;DHT22;66927;48.812;9.118;2023-07-08T00:25:50;24.90;63.50
12827;DHT22;66927;48.812;9.118;2023-07-08T00:28:25;24.90;63.90
12827;DHT22;66927;48.812;9.118;2023-07-08T00:30:51;24.90;63.70
12827;DHT22;66927;48.812;9.118;2023-07-08T00:33:18;24.90;63.80
12827;DHT22;66927;48.812;9.118;2023-07-08T00:35:45;24.90;63.50
12827;DHT22;66927;48.812;9.118;2023-07-08T00:40:38;24.80;63.80
12827;DHT22;66927;48.812;9.118;2023-07-08T00:43:14;24.80;63.50
12827;DHT22;66927;48.812;9.118;2023-07-08T00:46:22;24.80;63.60
12827;DHT22;66927;48.812;9.118;2023-07-08T00:48:55;24.80;63.70
12827;DHT22;66927;48.812;9.118;2023-07-08T00:51:23;24.80;63.60
12827;DHT22;66927;48.812;9.118;2023-07-08T00:53:52;24.80;63.50
12827;DHT22;66927;48.812;9.118;2023-07-08T00:56:31;24.90;63.60
12827;DHT22;66927;48.812;9.118;2023-07-08T00:59:06;24.80;63.50
12827;DHT22;66927;48.812;9.118;2023-07-08T01:01:37;24.80;64.00
12827;DHT22;66927;48.812;9.118;2023-07-08T01:04:11;24.80;64.40
12827;DHT22;66927;48.812;9.118;2023-07-08T01:06:41;24.70;64.40
12827;DHT22;66927;48.812;9.118;2023-07-08T01:09:11;24.70;65.30
12827;DHT22;66927;48.812;9.118;2023-07-08T01:11:40;24.70;65.60
12827;DHT22;66927;48.812;9.118;2023-07-08T01:14:09;24.60;66.60
12827;DHT22;66927;48.812;9.118;2023-07-08T01:16:37;24.60;67.30
12827;DHT22;66927;48.812;9.118;2023-07-08T01:19:06;24.50;67.70
12827;DHT22;66927;48.812;9.118;2023-07-08T01:21:38;24.50;68.40
12827;DHT22;66927;48.812;9.118;2023-07-08T01:24:07;24.50;68.60
12827;DHT22;66927;48.812;9.118;2023-07-08T01:26:38;24.40;68.90
12827;DHT22;66927;48.812;9.118;2023-07-08T01:29:05;24.40;68.90
12827;DHT22;66927;48.812;9.118;2023-07-08T01:31:33;24.30;68.90
12827;DHT22;66927;48.812;9.118;2023-07-08T01:33:59;24.30;68.90
12827;DHT22;66927;48.812;9.118;2023-07-08T01:36:26;24.30;69.30
12827;DHT22;66927;48.812;9.118;2023-07-08T01:38:55;24.20;69.40
12827;DHT22;66927;48.812;9.118;2023-07-08T01:41:21;24.20;69.30
12827;DHT22;66927;48.812;9.118;2023-07-08T01:43:46;24.20;69.90
12827;DHT22;66927;48.812;9.118;2023-07-08T01:46:22;24.10;70.00
12827;DHT22;66927;48.812;9.118;2023-07-08T01:48:52;24.10;70.20
12827;DHT22;66927;48.812;9.118;2023-07-08T01:51:18;24.00;70.40
12827;DHT22;66927;48.812;9.118;2023-07-08T01:53:45;23.90;70.70
12827;DHT22;66927;48.812;9.118;2023-07-08T01:56:12;23.90;69.90
12827;DHT22;66927;48.812;9.118;2023-07-08T01:58:38;23.80;70.10
12827;DHT22;66927;48.812;9.118;2023-07-08T02:01:05;23.90;71.00
12827;DHT22;66927;48.812;9.118;2023-07-08T02:03:30;23.80;70.80
12827;DHT22;66927;48.812;9.118;2023-07-08T02:05:57;23.80;70.90
12827;DHT22;66927;48.812;9.118;2023-07-08T02:08:23;23.80;70.60
12827;DHT22;66927;48.812;9.118;2023-07-08T02:10:59;23.70;70.50
12827;DHT22;66927;48.812;9.118;2023-07-08T02:13:25;23.70;70.70
12827;DHT22;66927;48.812;9.118;2023-07-08T02:15:51;23.70;71.00
12827;DHT22;66927;48.812;9.118;2023-07-08T02:18:17;23.60;71.70
12827;DHT22;66927;48.812;9.118;2023-07-08T02:20:46;23.60;72.00
12827;DHT22;66927;48.812;9.118;2023-07-08T02:23:13;23.60;72.40
12827;DHT22;66927;48.812;9.118;2023-07-08T02:25:39;23.60;72.50
12827;DHT22;66927;48.812;9.118;2023-07-08T02:28:06;23.50;72.80
12827;DHT22;66927;48.812;9.118;2023-07-08T02:30:32;23.50;73.10
12827;DHT22;66927;48.812;9.118;2023-07-08T02:32:58;23.50;73.30
12827;DHT22;66927;48.812;9.118;2023-07-08T02:35:26;23.50;73.60
12827;DHT22;66927;48.812;9.118;2023-07-08T02:37:53;23.50;74.00
12827;DHT22;66927;48.812;9.118;2023-07-08T02:40:20;23.50;74.20
12827;DHT22;66927;48.812;9.118;2023-07-08T02:42:46;23.40;74.10
12827;DHT22;66927;48.812;9.118;2023-07-08T02:45:13;23.40;74.40
12827;DHT22;66927;48.812;9.118;2023-07-08T02:47:39;23.30;74.50
12827;DHT22;66927;48.812;9.118;2023-07-08T02:50:05;23.40;74.80
12827;DHT22;66927;48.812;9.118;2023-07-08T02:52:31;23.30;73.60
12827;DHT22;66927;48.812;9.118;2023-07-08T02:54:57;23.30;73.30
12827;DHT22;66927;48.812;9.118;2023-07-08T02:57:22;23.30;74.00
12827;DHT22;66927;48.812;9.118;2023-07-08T02:59:48;23.30;74.30
12827;DHT22;66927;48.812;9.118;2023-07-08T03:02:13;23.30;74.70
12827;DHT22;66927;48.812;9.118;2023-07-08T03:04:41;23.30;74.50
12827;DHT22;66927;48.812;9.118;2023-07-08T03:07:08;23.30;74.10
12827;DHT22;66927;48.812;9.118;2023-07-08T03:09:38;23.20;74.30
12827;DHT22;66927;48.812;9.118;2023-07-08T03:12:06;23.20;74.60
12827;DHT22;66927;48.812;9.118;2023-07-08T03:14:32;23.10;74.90
12827;DHT22;66927;48.812;9.118;2023-07-08T03:16:57;23.10;75.00
12827;DHT22;66927;48.812;9.118;2023-07-08T03:19:23;23.10;75.40
12827;DHT22;66927;48.812;9.118;2023-07-08T03:21:49;23.10;75.50
12827;DHT22;66927;48.812;9.118;2023-07-08T03:24:15;23.10;75.50
12827;DHT22;66927;48.812;9.118;2023-07-08T03:26:44;23.10;75.60
12827;DHT22;66927;48.812;9.118;2023-07-08T03:29:15;23.10;76.30
12827;DHT22;66927;48.812;9.118;2023-07-08T03:31:41;23.10;76.70
12827;DHT22;66927;48.812;9.118;2023-07-08T03:34:10;23.10;76.80
12827;DHT22;66927;48.812;9.118;2023-07-08T03:36:42;23.00;76.80
12827;DHT22;66927;48.812;9.118;2023-07-08T03:39:09;23.10;76.30
12827;DHT22;66927;48.812;9.118;2023-07-08T03:41:35;23.00;76.10
12827;DHT22;66927;48.812;9.118;2023-07-08T03:44:00;23.00;76.20
12827;DHT22;66927;48.812;9.118;2023-07-08T03:46:28;23.00;75.40
12827;DHT22;66927;48.812;9.118;2023-07-08T03:48:54;23.00;74.70
12827;DHT22;66927;48.812;9.118;2023-07-08T03:51:25;23.00;74.30
12827;DHT22;66927;48.812;9.118;2023-07-08T03:53:51;23.00;74.10
12827;DHT22;66927;48.812;9.118;2023-07-08T03:56:17;23.00;73.90
12827;DHT22;66927;48.812;9.118;2023-07-08T03:58:44;23.00;73.50
12827;DHT22;66927;48.812;9.118;2023-07-08T04:01:15;23.00;72.90
12827;DHT22;66927;48.812;9.118;2023-07-08T04:03:42;23.00;72.80
12827;DHT22;66927;48.812;9.118;2023-07-08T04:06:08;23.10;72.90
12827;DHT22;66927;48.812;9.118;2023-07-08T04:08:33;23.10;72.60
12827;DHT22;66927;48.812;9.118;2023-07-08T04:11:00;23.10;72.60
12827;DHT22;66927;48.812;9.118;2023-07-08T04:13:26;23.10;73.20
12827;DHT22;66927;48.812;9.118;2023-07-08T04:15:56;23.10;73.10
12827;DHT22;66927;48.812;9.118;2023-07-08T04:18:22;23.10;73.50
12827;DHT22;66927;48.812;9.118;2023-07-08T04:20:48;23.10;73.70
12827;DHT22;66927;48.812;9.118;2023-07-08T04:23:18;23.00;74.20
12827;DHT22;66927;48.812;9.118;2023-07-08T04:25:46;23.00;74.80
12827;DHT22;66927;48.812;9.118;2023-07-08T04:28:12;23.00;75.30
12827;DHT22;66927;48.812;9.118;2023-07-08T04:30:38;23.00;75.80
12827;DHT22;66927;48.812;9.118;2023-07-08T04:33:07;23.00;76.20
12827;DHT22;66927;48.812;9.118;2023-07-08T04:35:34;23.00;76.60
12827;DHT22;66927;48.812;9.118;2023-07-08T04:38:04;23.00;76.80
12827;DHT22;66927;48.812;9.118;2023-07-08T04:40:35;23.00;77.10
12827;DHT22;66927;48.812;9.118;2023-07-08T04:43:06;23.10;77.00
12827;DHT22;66927;48.812;9.118;2023-07-08T04:45:32;23.00;76.40
12827;DHT22;66927;48.812;9.118;2023-07-08T04:47:57;23.00;76.30
12827;DHT22;66927;48.812;9.118;2023-07-08T04:50:23;23.10;76.70
12827;DHT22;66927;48.812;9.118;2023-07-08T04:52:50;23.10;77.50
12827;DHT22;66927;48.812;9.118;2023-07-08T04:55:16;23.00;77.60
12827;DHT22;66927;48.812;9.118;2023-07-08T04:57:42;23.20;77.60
12827;DHT22;66927;48.812;9.118;2023-07-08T05:00:15;23.20;78.30
12827;DHT22;66927;48.812;9.118;2023-07-08T05:02:42;23.30;76.20
12827;DHT22;66927;48.812;9.118;2023-07-08T05:05:08;23.30;76.10
12827;DHT22;66927;48.812;9.118;2023-07-08T05:07:33;23.20;76.10
12827;DHT22;66927;48.812;9.118;2023-07-08T05:09:59;23.20;76.20
12827;DHT22;66927;48.812;9.118;2023-07-08T05:12:26;23.20;76.60
12827;DHT22;66927;48.812;9.118;2023-07-08T05:14:52;23.20;76.80
12827;DHT22;66927;48.812;9.118;2023-07-08T05:17:18;23.20;77.10
12827;DHT22;66927;48.812;9.118;2023-07-08T05:19:44;23.20;77.40
12827;DHT22;66927;48.812;9.118;2023-07-08T05:22:11;23.30;77.60
12827;DHT22;66927;48.812;9.118;2023-07-08T05:24:37;23.30;77.90
12827;DHT22;66927;48.812;9.118;2023-07-08T05:27:04;23.30;78.00
12827;DHT22;66927;48.812;9.118;2023-07-08T05:29:30;23.30;78.70
12827;DHT22;66927;48.812;9.118;2023-07-08T05:31:57;23.30;79.20
12827;DHT22;66927;48.812;9.118;2023-07-08T05:34:22;23.40;79.80
12827;DHT22;66927;48.812;9.118;2023-07-08T05:36:48;23.30;80.60
12827;DHT22;66927;48.812;9.118;2023-07-08T05:39:14;23.40;81.70
12827;DHT22;66927;48.812;9.118;2023-07-08T05:41:39;23.40;82.10
12827;DHT22;66927;48.812;9.118;2023-07-08T05:44:05;23.40;82.40
12827;DHT22;66927;48.812;9.118;2023-07-08T05:46:30;23.50;83.30
12827;DHT22;66927;48.812;9.118;2023-07-08T05:48:56;23.40;83.40
12827;DHT22;66927;48.812;9.118;2023-07-08T05:51:22;23.50;83.30
12827;DHT22;66927;48.812;9.118;2023-07-08T05:53:48;23.50;81.60
12827;DHT22;66927;48.812;9.118;2023-07-08T05:56:13;23.50;81.60
12827;DHT22;66927;48.812;9.118;2023-07-08T05:58:40;23.60;81.90
12827;DHT22;66927;48.812;9.118;2023-07-08T06:01:06;23.60;81.70
12827;DHT22;66927;48.812;9.118;2023-07-08T06:03:32;23.60;81.30
12827;DHT22;66927;48.812;9.118;2023-07-08T06:05:57;23.70;80.30
12827;DHT22;66927;48.812;9.118;2023-07-08T06:08:23;23.70;79.80
12827;DHT22;66927;48.812;9.118;2023-07-08T06:10:50;23.70;79.60
12827;DHT22;66927;48.812;9.118;2023-07-08T06:13:16;23.70;79.60
12827;DHT22;66927;48.812;9.118;2023-07-08T06:15:43;23.80;79.70
12827;DHT22;66927;48.812;9.118;2023-07-08T06:18:09;23.80;79.30
12827;DHT22;66927;48.812;9.118;2023-07-08T06:20:35;23.90;79.40
12827;DHT22;66927;48.812;9.118;2023-07-08T06:23:01;23.80;78.70
12827;DHT22;66927;48.812;9.118;2023-07-08T06:25:27;23.90;78.60
12827;DHT22;66927;48.812;9.118;2023-07-08T06:27:52;23.90;78.70
12827;DHT22;66927;48.812;9.118;2023-07-08T06:30:18;23.90;78.80
12827;DHT22;66927;48.812;9.118;2023-07-08T06:32:44;24.00;79.10
12827;DHT22;66927;48.812;9.118;2023-07-08T06:35:10;24.00;78.70
12827;DHT22;66927;48.812;9.118;2023-07-08T06:37:36;24.00;78.70
12827;DHT22;66927;48.812;9.118;2023-07-08T06:40:01;24.00;79.40
12827;DHT22;66927;48.812;9.118;2023-07-08T06:42:28;24.10;79.50
12827;DHT22;66927;48.812;9.118;2023-07-08T06:44:55;24.10;79.20
12827;DHT22;66927;48.812;9.118;2023-07-08T06:47:21;24.20;79.80
12827;DHT22;66927;48.812;9.118;2023-07-08T06:49:48;24.20;79.90
12827;DHT22;66927;48.812;9.118;2023-07-08T06:52:14;24.30;80.70
12827;DHT22;66927;48.812;9.118;2023-07-08T06:54:40;24.40;80.60
12827;DHT22;66927;48.812;9.118;2023-07-08T06:57:06;24.50;80.60
12827;DHT22;66927;48.812;9.118;2023-07-08T06:59:33;24.60;79.70
12827;DHT22;66927;48.812;9.118;2023-07-08T07:01:59;24.60;79.80
12827;DHT22;66927;48.812;9.118;2023-07-08T07:04:24;24.60;79.80
12827;DHT22;66927;48.812;9.118;2023-07-08T07:06:50;24.60;79.90
12827;DHT22;66927;48.812;9.118;2023-07-08T07:09:16;24.60;80.20
12827;DHT22;66927;48.812;9.118;2023-07-08T07:11:41;24.60;80.20
12827;DHT22;66927;48.812;9.118;2023-07-08T07:14:07;24.60;80.40
12827;DHT22;66927;48.812;9.118;2023-07-08T07:16:33;24.60;80.80
12827;DHT22;66927;48.812;9.118;2023-07-08T07:18:59;24.60;80.60
12827;DHT22;66927;48.812;9.118;2023-07-08T07:21:25;24.60;81.10
12827;DHT22;66927;48.812;9.118;2023-07-08T07:23:50;24.60;81.10
12827;DHT22;66927;48.812;9.118;2023-07-08T07:26:16;24.60;81.30
12827;DHT22;66927;48.812;9.118;2023-07-08T07:28:42;24.60;81.20
12827;DHT22;66927;48.812;9.118;2023-07-08T07:31:07;24.60;81.50
12827;DHT22;66927;48.812;9.118;2023-07-08T07:33:33;24.70;81.70
12827;DHT22;66927;48.812;9.118;2023-07-08T07:35:59;24.70;81.70
12827;DHT22;66927;48.812;9.118;2023-07-08T07:38:25;24.60;81.70
12827;DHT22;66927;48.812;9.118;2023-07-08T07:40:55;24.70;82.00
12827;DHT22;66927;48.812;9.118;2023-07-08T07:43:21;24.70;82.30
12827;DHT22;66927;48.812;9.118;2023-07-08T07:45:51;24.70;83.00
12827;DHT22;66927;48.812;9.118;2023-07-08T07:48:20;24.70;82.60
12827;DHT22;66927;48.812;9.118;2023-07-08T07:50:48;24.70;82.50
12827;DHT22;66927;48.812;9.118;2023-07-08T07:53:15;24.70;82.70
12827;DHT22;66927;48.812;9.118;2023-07-08T07:55:40;24.70;83.70
12827;DHT22;66927;48.812;9.118;2023-07-08T07:58:06;24.70;83.10
12827;DHT22;66927;48.812;9.118;2023-07-08T08:00:33;24.80;83.40
12827;DHT22;66927;48.812;9.118;2023-07-08T08:02:59;24.90;83.70
12827;DHT22;66927;48.812;9.118;2023-07-08T08:05:25;25.00;83.30
12827;DHT22;66927;48.812;9.118;2023-07-08T08:07:50;25.00;83.30
12827;DHT22;66927;48.812;9.118;2023-07-08T08:10:16;25.00;83.40
12827;DHT22;66927;48.812;9.118;2023-07-08T08:12:42;24.90;83.70
12827;DHT22;66927;48.812;9.118;2023-07-08T08:15:08;25.10;83.60
12827;DHT22;66927;48.812;9.118;2023-07-08T08:17:34;25.10;83.20
12827;DHT22;66927;48.812;9.118;2023-07-08T08:20:01;25.20;83.10
12827;DHT22;66927;48.812;9.118;2023-07-08T08:22:26;25.20;82.70
12827;DHT22;66927;48.812;9.118;2023-07-08T08:24:53;25.20;82.60
12827;DHT22;66927;48.812;9.118;2023-07-08T08:27:19;25.20;82.80
12827;DHT22;66927;48.812;9.118;2023-07-08T08:29:45;25.20;82.30
12827;DHT22;66927;48.812;9.118;2023-07-08T08:32:11;25.30;82.30
12827;DHT22;66927;48.812;9.118;2023-07-08T08:34:36;25.30;81.10
12827;DHT22;66927;48.812;9.118;2023-07-08T08:37:02;25.30;81.00
12827;DHT22;66927;48.812;9.118;2023-07-08T08:39:32;25.40;79.10
12827;DHT22;66927;48.812;9.118;2023-07-08T08:41:58;25.60;78.80
12827;DHT22;66927;48.812;9.118;2023-07-08T08:44:30;25.70;78.80
12827;DHT22;66927;48.812;9.118;2023-07-08T08:50:02;25.70;78.00
12827;DHT22;66927;48.812;9.118;2023-07-08T08:52:28;25.80;78.30
12827;DHT22;66927;48.812;9.118;2023-07-08T08:54:54;25.80;79.20
12827;DHT22;66927;48.812;9.118;2023-07-08T08:57:44;25.90;78.60
12827;DHT22;66927;48.812;9.118;2023-07-08T09:00:16;25.90;77.90
12827;DHT22;66927;48.812;9.118;2023-07-08T09:03:08;26.10;76.50
12827;DHT22;66927;48.812;9.118;2023-07-08T09:05:35;26.10;77.00
12827;DHT22;66927;48.812;9.118;2023-07-08T09:10:46;26.10;77.00
12827;DHT22;66927;48.812;9.118;2023-07-08T09:13:28;26.10;76.70
12827;DHT22;66927;48.812;9.118;2023-07-08T09:22:01;26.30;74.60
12827;DHT22;66927;48.812;9.118;2023-07-08T09:24:46;26.40;74.40
12827;DHT22;66927;48.812;9.118;2023-07-08T09:27:13;26.50;75.60
12827;DHT22;66927;48.812;9.118;2023-07-08T09:29:39;26.50;75.20
12827;DHT22;66927;48.812;9.118;2023-07-08T09:32:26;26.50;75.30
12827;DHT22;66927;48.812;9.118;2023-07-08T09:34:54;26.50;75.90
12827;DHT22;66927;48.812;9.118;2023-07-08T09:37:34;26.50;74.90
12827;DHT22;66927;48.812;9.118;2023-07-08T09:40:04;26.50;74.40
12827;DHT22;66927;48.812;9.118;2023-07-08T09:42:32;26.50;75.10
12827;DHT22;66927;48.812;9.118;2023-07-08T09:45:00;26.60;75.20
12827;DHT22;66927;48.812;9.118;2023-07-08T09:47:29;26.70;74.30
12827;DHT22;66927;48.812;9.118;2023-07-08T09:49:59;26.80;73.40
12827;DHT22;66927;48.812;9.118;2023-07-08T09:52:25;26.80;73.60
12827;DHT22;66927;48.812;9.118;2023-07-08T09:54:52;26.90;72.70
12827;DHT22;66927;48.812;9.118;2023-07-08T09:59:58;27.00;73.70
12827;DHT22;66927;48.812;9.118;2023-07-08T10:02:28;27.10;74.30
12827;DHT22;66927;48.812;9.118;2023-07-08T10:04:57;27.10;74.80
12827;DHT22;66927;48.812;9.118;2023-07-08T10:07:29;27.10;75.10
12827;DHT22;66927;48.812;9.118;2023-07-08T10:09:58;27.20;74.90
12827;DHT22;66927;48.812;9.118;2023-07-08T10:12:28;27.30;74.50
12827;DHT22;66927;48.812;9.118;2023-07-08T10:15:24;27.30;74.30
12827;DHT22;66927;48.812;9.118;2023-07-08T10:17:46;27.30;74.10
12827;DHT22;66927;48.812;9.118;2023-07-08T10:20:13;27.30;74.70
12827;DHT22;66927;48.812;9.118;2023-07-08T10:22:47;27.40;74.10
12827;DHT22;66927;48.812;9.118;2023-07-08T10:28:33;27.40;74.30
12827;DHT22;66927;48.812;9.118;2023-07-08T10:31:16;27.40;74.40
12827;DHT22;66927;48.812;9.118;2023-07-08T10:41:53;27.40;75.90
12827;DHT22;66927;48.812;9.118;2023-07-08T10:44:30;27.40;76.20
12827;DHT22;66927;48.812;9.118;2023-07-08T10:47:18;27.40;76.60
12827;DHT22;66927;48.812;9.118;2023-07-08T10:50:15;27.50;77.00
12827;DHT22;66927;48.812;9.118;2023-07-08T10:53:09;27.60;77.20
12827;DHT22;66927;48.812;9.118;2023-07-08T10:55:47;27.60;77.30
12827;DHT22;66927;48.812;9.118;2023-07-08T10:58:23;27.60;77.70
12827;DHT22;66927;48.812;9.118;2023-07-08T11:06:26;27.70;77.60
12827;DHT22;66927;48.812;9.118;2023-07-08T11:08:56;27.70;76.80
12827;DHT22;66927;48.812;9.118;2023-07-08T11:14:06;27.80;77.00
12827;DHT22;66927;48.812;9.118;2023-07-08T11:16:42;27.80;77.20
12827;DHT22;66927;48.812;9.118;2023-07-08T11:19:16;27.90;76.70
12827;DHT22;66927;48.812;9.118;2023-07-08T11:21:48;27.90;76.90
12827;DHT22;66927;48.812;9.118;2023-07-08T11:27:05;28.20;75.90
12827;DHT22;66927;48.812;9.118;2023-07-08T11:32:04;28.30;75.30
12827;DHT22;66927;48.812;9.118;2023-07-08T11:34:32;28.30;76.10
12827;DHT22;66927;48.812;9.118;2023-07-08T11:36:59;28.40;76.30
12827;DHT22;66927;48.812;9.118;2023-07-08T11:39:46;28.40;75.70
12827;DHT22;66927;48.812;9.118;2023-07-08T11:45:08;28.50;75.30
12827;DHT22;66927;48.812;9.118;2023-07-08T11:47:39;28.50;75.40
12827;DHT22;66927;48.812;9.118;2023-07-08T11:50:18;28.40;75.50
12827;DHT22;66927;48.812;9.118;2023-07-08T11:52:52;28.40;75.70
12827;DHT22;66927;48.812;9.118;2023-07-08T11:55:36;28.30;76.80
12827;DHT22;66927;48.812;9.118;2023-07-08T11:58:06;28.30;76.80
12827;DHT22;66927;48.812;9.118;2023-07-08T12:00:35;28.40;77.60
12827;DHT22;66927;48.812;9.118;2023-07-08T12:03:21;28.50;76.40
12827;DHT22;66927;48.812;9.118;2023-07-08T12:05:47;28.60;75.90
12827;DHT22;66927;48.812;9.118;2023-07-08T12:08:15;28.70;75.80
12827;DHT22;66927;48.812;9.118;2023-07-08T12:10:47;28.70;76.30
12827;DHT22;66927;48.812;9.118;2023-07-08T12:13:17;28.70;76.10
12827;DHT22;66927;48.812;9.118;2023-07-08T12:15:44;28.90;75.40
12827;DHT22;66927;48.812;9.118;2023-07-08T12:18:16;28.90;76.10
12827;DHT22;66927;48.812;9.118;2023-07-08T12:20:55;29.00;74.70
12827;DHT22;66927;48.812;9.118;2023-07-08T12:23:23;29.10;75.40
12827;DHT22;66927;48.812;9.118;2023-07-08T12:25:51;29.10;74.60
12827;DHT22;66927;48.812;9.118;2023-07-08T12:28:17;29.20;73.70
12827;DHT22;66927;48.812;9.118;2023-07-08T12:30:44;29.30;73.30
12827;DHT22;66927;48.812;9.118;2023-07-08T12:33:18;29.30;73.80
12827;DHT22;66927;48.812;9.118;2023-07-08T12:35:45;29.40;73.20
12827;DHT22;66927;48.812;9.118;2023-07-08T12:38:27;29.40;74.10
12827;DHT22;66927;48.812;9.118;2023-07-08T12:40:56;29.50;74.10
12827;DHT22;66927;48.812;9.118;2023-07-08T12:43:22;29.50;73.70
12827;DHT22;66927;48.812;9.118;2023-07-08T12:45:48;29.50;71.90
12827;DHT22;66927;48.812;9.118;2023-07-08T12:48:13;29.60;72.20
12827;DHT22;66927;48.812;9.118;2023-07-08T12:50:39;29.50;71.70
12827;DHT22;66927;48.812;9.118;2023-07-08T12:53:06;29.50;72.10
12827;DHT22;66927;48.812;9.118;2023-07-08T12:55:39;29.50;72.50
12827;DHT22;66927;48.812;9.118;2023-07-08T12:58:12;29.70;72.10
12827;DHT22;66927;48.812;9.118;2023-07-08T13:00:40;29.70;72.00
12827;DHT22;66927;48.812;9.118;2023-07-08T13:03:11;29.70;72.30
12827;DHT22;66927;48.812;9.118;2023-07-08T13:05:40;29.80;73.20
12827;DHT22;66927;48.812;9.118;2023-07-08T13:08:14;29.90;72.20
12827;DHT22;66927;48.812;9.118;2023-07-08T13:10:41;30.00;70.70
12827;DHT22;66927;48.812;9.118;2023-07-08T13:13:12;30.10;70.20
12827;DHT22;66927;48.812;9.118;2023-07-08T13:15:41;30.10;70.70
12827;DHT22;66927;48.812;9.118;2023-07-08T13:18:15;30.10;71.50
12827;DHT22;66927;48.812;9.118;2023-07-08T13:20:42;30.20;69.30
12827;DHT22;66927;48.812;9.118;2023-07-08T13:23:08;30.20;70.40
12827;DHT22;66927;48.812;9.118;2023-07-08T13:25:37;30.30;70.50
12827;DHT22;66927;48.812;9.118;2023-07-08T13:30:53;30.40;68.00
12827;DHT22;66927;48.812;9.118;2023-07-08T13:33:20;30.40;68.20
12827;DHT22;66927;48.812;9.118;2023-07-08T13:35:46;30.40;68.30
12827;DHT22;66927;48.812;9.118;2023-07-08T13:38:19;30.30;69.20
12827;DHT22;66927;48.812;9.118;2023-07-08T13:41:07;30.40;68.30
12827;DHT22;66927;48.812;9.118;2023-07-08T13:43:36;30.40;68.90
12827;DHT22;66927;48.812;9.118;2023-07-08T13:46:04;30.40;68.90
12827;DHT22;66927;48.812;9.118;2023-07-08T13:48:42;30.30;69.10
12827;DHT22;66927;48.812;9.118;2023-07-08T13:51:20;30.30;68.80
12827;DHT22;66927;48.812;9.118;2023-07-08T13:58:52;30.50;67.80
12827;DHT22;66927;48.812;9.118;2023-07-08T14:01:24;30.40;68.50
12827;DHT22;66927;48.812;9.118;2023-07-08T14:03:51;30.40;68.40
12827;DHT22;66927;48.812;9.118;2023-07-08T14:06:23;30.50;67.20
12827;DHT22;66927;48.812;9.118;2023-07-08T14:08:53;30.50;67.80
12827;DHT22;66927;48.812;9.118;2023-07-08T14:11:19;30.40;66.90
12827;DHT22;66927;48.812;9.118;2023-07-08T14:13:44;30.50;66.50
12827;DHT22;66927;48.812;9.118;2023-07-08T14:16:29;30.50;66.10
12827;DHT22;66927;48.812;9.118;2023-07-08T14:18:56;30.50;65.80
12827;DHT22;66927;48.812;9.118;2023-07-08T14:21:22;30.60;66.20
12827;DHT22;66927;48.812;9.118;2023-07-08T14:23:48;30.60;66.50
12827;DHT22;66927;48.812;9.118;2023-07-08T14:26:14;30.60;66.50
12827;DHT22;66927;48.812;9.118;2023-07-08T14:28:40;30.70;66.50
12827;DHT22;66927;48.812;9.118;2023-07-08T14:31:14;30.80;66.50
12827;DHT22;66927;48.812;9.118;2023-07-08T14:33:41;30.80;65.90
12827;DHT22;66927;48.812;9.118;2023-07-08T14:36:10;30.80;65.90
12827;DHT22;66927;48.812;9.118;2023-07-08T14:38:37;30.90;66.10
12827;DHT22;66927;48.812;9.118;2023-07-08T14:41:03;30.80;65.80
12827;DHT22;66927;48.812;9.118;2023-07-08T14:43:30;30.70;66.50
12827;DHT22;66927;48.812;9.118;2023-07-08T14:45:59;30.70;67.60
12827;DHT22;66927;48.812;9.118;2023-07-08T14:48:28;30.70;66.30
12827;DHT22;66927;48.812;9.118;2023-07-08T14:50:54;30.70;66.70
12827;DHT22;66927;48.812;9.118;2023-07-08T14:53:20;30.70;67.20
12827;DHT22;66927;48.812;9.118;2023-07-08T14:55:47;30.60;66.90
12827;DHT22;66927;48.812;9.118;2023-07-08T14:58:28;30.60;66.70
12827;DHT22;66927;48.812;9.118;2023-07-08T15:00:59;30.60;67.90
12827;DHT22;66927;48.812;9.118;2023-07-08T15:03:28;30.60;69.20
12827;DHT22;66927;48.812;9.118;2023-07-08T15:05:54;30.70;66.90
12827;DHT22;66927;48.812;9.118;2023-07-08T15:08:19;30.70;67.10
12827;DHT22;66927;48.812;9.118;2023-07-08T15:10:48;30.70;67.80
12827;DHT22;66927;48.812;9.118;2023-07-08T15:13:15;30.70;67.60
12827;DHT22;66927;48.812;9.118;2023-07-08T15:15:41;30.60;66.90
12827;DHT22;66927;48.812;9.118;2023-07-08T15:18:12;30.60;67.50
12827;DHT22;66927;48.812;9.118;2023-07-08T15:20:39;30.50;67.10
12827;DHT22;66927;48.812;9.118;2023-07-08T15:23:05;30.50;67.50
12827;DHT22;66927;48.812;9.118;2023-07-08T15:25:31;30.50;66.60
12827;DHT22;66927;48.812;9.118;2023-07-08T15:28:01;30.50;66.70
12827;DHT22;66927;48.812;9.118;2023-07-08T15:30:29;30.40;66.70
12827;DHT22;66927;48.812;9.118;2023-07-08T15:32:56;30.30;67.00
12827;DHT22;66927;48.812;9.118;2023-07-08T15:35:27;30.20;67.10
12827;DHT22;66927;48.812;9.118;2023-07-08T15:37:58;30.20;67.40
12827;DHT22;66927;48.812;9.118;2023-07-08T15:40:25;30.10;68.20
12827;DHT22;66927;48.812;9.118;2023-07-08T15:42:56;30.00;68.40
12827;DHT22;66927;48.812;9.118;2023-07-08T15:45:29;30.00;69.00
12827;DHT22;66927;48.812;9.118;2023-07-08T15:47:56;30.00;68.80
12827;DHT22;66927;48.812;9.118;2023-07-08T15:50:23;30.00;68.90
12827;DHT22;66927;48.812;9.118;2023-07-08T15:52:50;30.00;69.20
12827;DHT22;66927;48.812;9.118;2023-07-08T15:55:38;30.00;69.10
12827;DHT22;66927;48.812;9.118;2023-07-08T15:58:09;30.10;68.80
12827;DHT22;66927;48.812;9.118;2023-07-08T16:00:38;30.20;68.00
12827;DHT22;66927;48.812;9.118;2023-07-08T16:03:12;30.20;66.20
12827;DHT22;66927;48.812;9.118;2023-07-08T16:05:38;30.20;66.50
12827;DHT22;66927;48.812;9.118;2023-07-08T16:08:04;30.10;67.10
12827;DHT22;66927;48.812;9.118;2023-07-08T16:10:30;30.20;67.60
12827;DHT22;66927;48.812;9.118;2023-07-08T16:13:01;30.20;67.30
12827;DHT22;66927;48.812;9.118;2023-07-08T16:15:32;30.10;67.30
12827;DHT22;66927;48.812;9.118;2023-07-08T16:17:58;30.10;67.70
12827;DHT22;66927;48.812;9.118;2023-07-08T16:22:51;30.00;68.00
12827;DHT22;66927;48.812;9.118;2023-07-08T16:25:26;30.10;67.60
12827;DHT22;66927;48.812;9.118;2023-07-08T16:27:52;30.10;68.10
12827;DHT22;66927;48.812;9.118;2023-07-08T16:30:20;30.10;68.50
12827;DHT22;66927;48.812;9.118;2023-07-08T16:32:47;30.10;68.00
12827;DHT22;66927;48.812;9.118;2023-07-08T16:35:16;30.10;67.80